Otis, OR (97368)

11:27 PM PDT on October 25, 2014 (GMT -0700)
Aeolian Way Chesterhill | Change Station
CLOSE
Current Station
Personal Weather Station
Location: Neskowin, OR
Elevation: 381 ft
Nearby Weather Stations

Elev 381 ft 45.14 °N, 123.96 °W | Updated 8 seconds ago

Partly Cloudy
Partly Cloudy
55.0 °F
Feels Like 55.0 °F
N
6.9
Wind Variable Wind from WSW
Gusts 10.0 mph

Today
High -- | Low -- °F
--% Chance of Precip.
Yesterday
High -- | Low -- °F
Precip. -- in
7:44 AM 6:13 PM
Waxing Crescent, 6% visible
Pressure 29.91 in
Visibility 10.0 miles
Clouds Scattered Clouds 6000 ft
Dew Point 49 °F
Humidity 81%
Rainfall 0.87 in
Snow Depth Not available.
UV 0 out of 12
Pollen .30 out of 12
Air Quality Not available.
Flu Activity Sporadic
METAR KTMK 260615Z AUTO 13006KT 10SM SCT060 10/09 A2991 RMK AO2

More Conditions Fewer Conditions

Pressure 29.91 in
Visibility 10.0 miles
Clouds Scattered Clouds 6000 ft
Dew Point 49 °F
Humidity 81%
Rainfall 0.87 in
Snow Depth Not available.
UV 0 out of 12
Pollen .30 out of 12
Air Quality Not available.
Flu Activity Sporadic
METAR KTMK 260615Z AUTO 13006KT 10SM SCT060 10/09 A2991 RMK AO2

More Conditions Fewer Conditions

10-Day Weather Forecast

Almanac

Astronomy

Oct. 25, 2014 Rise Set
Actual Time 7:44 AM PDT 6:13 PM PDT
Civil Twilight 7:14 AM PDT 6:44 PM PDT
Nautical Twilight 6:40 AM PDT 7:18 PM PDT
Astronomical Twilight 6:06 AM PDT 7:52 PM PDT
Moon 9:32 AM PDT (10/25) 7:37 PM PDT (10/25)
Length of Visible Light 11h 29m
Length of Day
10h 29m
Tomorrow will be 2m 54s shorter.
Waxing Crescent, 6% of the Moon is Illuminated
Oct 26
Waxing Crescent
Oct 30
First Quarter
Nov 6
Full
Nov 14
Last Quarter
Nov 22
New

Community

WunderPhotos

Upload Photos

1,765,114 photos uploaded!

Nearby

Snow Depth

Station Depth Elevation
Saddle Mountain 3 in 3250 ft
Seine Creek 0 in 2000 ft
Little Meadows 0 in 4000 ft
Daly Lake 0 in 3600 ft
Jump Off Joe 1 in 3500 ft

Earthquake Activity

City Distance Mag. Time & Date
No recent earthquake activity has been reported nearby.
Minimum magnitude displayed is 2.5.

Coastal Water Temperatures

Place Temperature
South Beach, OR 59.0 °F
Charleston, OR 57.9 °F

Nearby Weather Stations